Stations météo

réclame
Mon MeteoGroup
London/Gatwick, Grande-Bretagne (3776): Température de l'air & dewpoint: 08.08.2020 20:00:00 - 14.08.2020 20:00:00 (BST)London/Gatwick, Grande-Bretagne (3776): Vitesse du vent: 08.08.2020 20:00:00 - 14.08.2020 20:00:00 (BST)London/Gatwick, Grande-Bretagne (3776): Direction du vent: 08.08.2020 20:00:00 - 14.08.2020 20:00:00 (BST)London/Gatwick, Grande-Bretagne (3776): visibility: 08.08.2020 20:00:00 - 14.08.2020 20:00:00 (BST)
Date & Time tt [°C] td [°C] ff [km/h] ff [knt] dd vv [km]
14.08.2020 20:00:00 20,0 17,0 13 7 NW 10
14.08.2020 19:00:00 20,0 17,0 11 6 NNW 10
14.08.2020 18:00:00 21,0 16,0 9 5 NW 10
14.08.2020 17:00:00 21,0 16,0 13 7 NNW 10
14.08.2020 16:00:00 21,0 17,0 9 5 NNW 10
14.08.2020 15:00:00 21,0 16,0 15 8 NNW 10
14.08.2020 14:00:00 21,0 17,0 11 6 NNW 10
14.08.2020 13:00:00 21,0 17,0 13 7 WNW 10
14.08.2020 12:00:00 21,0 17,0 9 5 NNE 10
14.08.2020 11:00:00 19,0 16,0 11 6 N 10
14.08.2020 10:00:00 18,0 17,0 11 6 N 9
14.08.2020 09:00:00 18,0 17,0 13 7 N 6
14.08.2020 08:00:00 18,0 17,0 9 5 N 6
14.08.2020 07:00:00 18,0 17,0 11 6 N 6
14.08.2020 06:00:00 18,0 17,0 13 7 NNE 6
14.08.2020 05:00:00 18,0 17,0 11 6 NNE 7
14.08.2020 04:00:00 18,0 17,0 13 7 N 7
14.08.2020 03:00:00 19,0 17,0 15 8 NNE 7
14.08.2020 02:00:00 19,0 17,0 11 6 NE 7
14.08.2020 01:00:00 19,0 18,0 13 7 N 8
14.08.2020 00:00:00 20,0 18,0 11 6 N 8
13.08.2020 23:00:00 21,0 19,0 9 5 NE 8
13.08.2020 22:00:00 21,0 19,0 5 3 N 6
13.08.2020 21:00:00 21,0 19,0 5 3 - 9
13.08.2020 20:00:00 22,0 19,0 13 7 NNW 10
13.08.2020 19:00:00 22,0 19,0 5 3 - 10
13.08.2020 18:00:00 23,0 20,0 11 6 NNW 10
13.08.2020 17:00:00 22,0 20,0 4 2 - 10
13.08.2020 16:00:00 23,0 19,0 15 8 N 10
13.08.2020 15:00:00 26,0 19,0 11 6 SSE 10
13.08.2020 14:00:00 25,0 22,0 8 4 S 10
13.08.2020 13:00:00 27,0 19,0 16 9 E 10
13.08.2020 12:00:00 27,0 19,0 11 6 NE 10
13.08.2020 11:00:00 25,0 19,0 11 6 NNE 9
13.08.2020 10:00:00 25,0 19,0 11 6 NNE 9
13.08.2020 09:00:00 23,0 19,0 8 4 NNE 7
13.08.2020 08:00:00 21,0 19,0 8 4 N 8
13.08.2020 07:00:00 20,0 19,0 4 2 E 8
13.08.2020 06:00:00 21,0 20,0 8 4 NW 10
13.08.2020 05:00:00 21,0 19,0 4 2 E 8
13.08.2020 04:00:00 22,0 18,0 4 2 - 10
13.08.2020 03:00:00 22,0 17,0 5 3 S 10
13.08.2020 02:00:00 22,0 17,0 4 2 - 10
13.08.2020 01:00:00 22,0 17,0 8 4 E 10
13.08.2020 00:00:00 22,0 17,0 8 4 ENE 10
12.08.2020 23:00:00 23,0 17,0 4 2 - 10
12.08.2020 22:00:00 25,0 17,0 13 7 SSW 10
12.08.2020 21:00:00 27,0 17,0 11 6 ESE 10
12.08.2020 20:00:00 28,0 18,0 11 6 ENE 10
12.08.2020 19:00:00 30,0 17,0 16 9 E 10
12.08.2020 18:00:00 31,0 17,0 22 12 ENE 10
12.08.2020 17:00:00 33,0 16,0 18 10 E 10
12.08.2020 16:00:00 34,0 17,0 18 10 ESE 10
12.08.2020 15:00:00 34,0 17,0 11 6 SE 10
12.08.2020 14:00:00 33,0 17,0 9 5 ESE 10
12.08.2020 13:00:00 32,0 17,0 4 2 - 10
12.08.2020 12:00:00 31,0 17,0 8 4 SSW 10
12.08.2020 11:00:00 29,0 18,0 4 2 - 10
12.08.2020 10:00:00 27,0 19,0 4 2 - 9
12.08.2020 09:00:00 25,0 18,0 11 6 E 8
12.08.2020 08:00:00 22,0 18,0 9 5 E 8
12.08.2020 07:00:00 19,0 17,0 5 3 - 7
12.08.2020 06:00:00 20,0 17,0 2 1 - 7
12.08.2020 05:00:00 20,0 17,0 5 3 SW 7
12.08.2020 04:00:00 21,0 17,0 2 1 NNE 8
12.08.2020 03:00:00 21,0 18,0 8 4 E 7
12.08.2020 02:00:00 21,0 17,0 8 4 ENE 10
12.08.2020 01:00:00 22,0 17,0 5 3 - 10
12.08.2020 00:00:00 23,0 17,0 4 2 - 10
11.08.2020 23:00:00 24,0 17,0 8 4 E 10
11.08.2020 22:00:00 27,0 17,0 15 8 SSE 10
11.08.2020 21:00:00 29,0 16,0 4 2 SSW 10
11.08.2020 20:00:00 31,0 17,0 9 5 SSW 10
11.08.2020 19:00:00 33,0 17,0 9 5 WSW 10
11.08.2020 18:00:00 33,0 17,0 8 4 E 10
11.08.2020 17:00:00 34,0 17,0 11 6 E 10
11.08.2020 16:00:00 33,0 17,0 5 3 - 10
11.08.2020 15:00:00 33,0 17,0 11 6 SE 10
11.08.2020 14:00:00 33,0 15,0 9 5 ESE 10
11.08.2020 13:00:00 33,0 14,0 8 4 NE 10
11.08.2020 12:00:00 32,0 15,0 5 3 - 10
11.08.2020 11:00:00 31,0 16,0 8 4 NE 10
11.08.2020 10:00:00 28,0 17,0 4 2 - 10
11.08.2020 09:00:00 24,0 18,0 2 1 - 10
11.08.2020 08:00:00 21,0 18,0 5 3 ENE 10
11.08.2020 07:00:00 20,0 17,0 4 2 ESE 10
11.08.2020 06:00:00 20,0 17,0 4 2 - 10
11.08.2020 05:00:00 19,0 17,0 11 6 W 10
11.08.2020 04:00:00 20,0 17,0 2 1 - 10
11.08.2020 03:00:00 21,0 17,0 4 2 SW 10
11.08.2020 02:00:00 21,0 17,0 4 2 W 10
11.08.2020 01:00:00 22,0 17,0 2 1 SSW 10
11.08.2020 00:00:00 22,0 17,0 5 3 SW 10
10.08.2020 23:00:00 23,0 17,0 2 1 W 10
10.08.2020 22:00:00 25,0 17,0 8 4 E 10
10.08.2020 21:00:00 27,0 17,0 5 3 - 10
10.08.2020 20:00:00 30,0 16,0 9 5 SSE 10
10.08.2020 19:00:00 31,0 16,0 13 7 S 10
10.08.2020 18:00:00 33,0 15,0 13 7 S 10
10.08.2020 17:00:00 33,0 14,0 15 8 SE 10
10.08.2020 16:00:00 34,0 14,0 16 9 ESE 10
10.08.2020 15:00:00 33,0 14,0 11 6 SE 10
10.08.2020 14:00:00 32,0 15,0 13 7 SE 10
10.08.2020 13:00:00 31,0 16,0 13 7 SE 10
10.08.2020 12:00:00 30,0 18,0 11 6 SE 10
10.08.2020 11:00:00 28,0 19,0 9 5 - 10
10.08.2020 10:00:00 25,0 19,0 9 5 E 10
10.08.2020 09:00:00 23,0 18,0 11 6 ENE 10
10.08.2020 08:00:00 21,0 18,0 13 7 ENE 10
10.08.2020 07:00:00 19,0 18,0 11 6 ENE 9
10.08.2020 06:00:00 19,0 18,0 9 5 NE 10
10.08.2020 05:00:00 19,0 18,0 8 4 NE 10
10.08.2020 04:00:00 19,0 17,0 8 4 ENE 10
10.08.2020 03:00:00 21,0 18,0 8 4 NE 10
10.08.2020 02:00:00 21,0 18,0 8 4 NNE 10
10.08.2020 01:00:00 21,0 17,0 8 4 ENE 10
10.08.2020 00:00:00 23,0 17,0 13 7 ENE 10
09.08.2020 23:00:00 23,0 17,0 15 8 NE 10
09.08.2020 22:00:00 24,0 17,0 13 7 NE 10
09.08.2020 21:00:00 25,0 17,0 18 10 NE 10
09.08.2020 20:00:00 27,0 16,0 18 10 NE 10
09.08.2020 19:00:00 29,0 16,0 15 8 NE 10
09.08.2020 18:00:00 31,0 16,0 16 9 ENE 10
09.08.2020 17:00:00 31,0 17,0 18 10 ENE 10
09.08.2020 16:00:00 32,0 16,0 18 10 ENE 10
09.08.2020 15:00:00 32,0 16,0 21 11 E 10
09.08.2020 14:00:00 29,0 17,0 16 9 NE 10
09.08.2020 13:00:00 28,0 17,0 18 10 ENE 10
09.08.2020 12:00:00 26,0 17,0 15 8 NNE 10
09.08.2020 11:00:00 24,0 17,0 15 8 NE 10
09.08.2020 10:00:00 22,0 16,0 16 9 NNE 10
09.08.2020 09:00:00 20,0 16,0 15 8 NNE 9
09.08.2020 08:00:00 19,0 16,0 15 8 NNE 10
09.08.2020 07:00:00 18,0 15,0 15 8 NNE 9
09.08.2020 06:00:00 18,0 15,0 13 7 NNE 10
09.08.2020 05:00:00 18,0 15,0 15 8 N 10
09.08.2020 04:00:00 18,0 15,0 15 8 N 10
09.08.2020 03:00:00 19,0 16,0 11 6 N 10
09.08.2020 02:00:00 21,0 16,0 15 8 NNE 10
09.08.2020 01:00:00 21,0 16,0 8 4 NNE 10
09.08.2020 00:00:00 22,0 15,0 13 7 NNE 10
08.08.2020 23:00:00 23,0 14,0 15 8 ENE 10
08.08.2020 22:00:00 25,0 13,0 13 7 NNE 10
08.08.2020 21:00:00 27,0 14,0 13 7 NE 10
08.08.2020 20:00:00 29,0 14,0 16 9 ENE 10

tt = Température de l'air
td = dewpoint
ff = Vitesse du vent
dd = Direction du vent
vv = visibility

stations d'obs. à proximité